sensor_id;sensor_type;location;lat;lon;timestamp;pressure;altitude;pressure_sealevel;temperature;humidity
27623;BME280;15041;45.334;5.622;2024-02-28T00:02:31;98840.22;;;10.83;100.00
27623;BME280;15041;45.334;5.622;2024-02-28T00:05:18;98846.44;;;10.83;100.00
27623;BME280;15041;45.334;5.622;2024-02-28T00:08:05;98846.69;;;10.87;100.00
27623;BME280;15041;45.334;5.622;2024-02-28T00:10:53;98849.94;;;10.89;98.71
27623;BME280;15041;45.334;5.622;2024-02-28T00:13:41;98853.19;;;10.81;98.15
27623;BME280;15041;45.334;5.622;2024-02-28T00:16:29;98866.13;;;10.79;100.00
27623;BME280;15041;45.334;5.622;2024-02-28T00:19:16;98867.75;;;10.80;99.61
27623;BME280;15041;45.334;5.622;2024-02-28T00:22:04;98870.44;;;10.80;99.81
27623;BME280;15041;45.334;5.622;2024-02-28T00:24:51;98874.22;;;10.84;100.00
27623;BME280;15041;45.334;5.622;2024-02-28T00:27:39;98871.00;;;10.82;99.61
27623;BME280;15041;45.334;5.622;2024-02-28T00:30:27;98873.69;;;10.82;98.37
27623;BME280;15041;45.334;5.622;2024-02-28T00:33:15;98883.69;;;10.86;93.88
27623;BME280;15041;45.334;5.622;2024-02-28T00:36:03;98886.09;;;10.88;95.71
27623;BME280;15041;45.334;5.622;2024-02-28T00:38:50;98891.78;;;10.81;96.91
27623;BME280;15041;45.334;5.622;2024-02-28T00:41:38;98886.66;;;10.75;100.00
27623;BME280;15041;45.334;5.622;2024-02-28T00:44:25;98898.00;;;10.82;98.49
27623;BME280;15041;45.334;5.622;2024-02-28T00:47:15;98905.00;;;10.83;98.29
27623;BME280;15041;45.334;5.622;2024-02-28T00:50:03;98907.72;;;10.78;98.39
27623;BME280;15041;45.334;5.622;2024-02-28T00:52:50;98899.63;;;10.73;99.88
27623;BME280;15041;45.334;5.622;2024-02-28T00:55:37;98907.41;;;10.59;100.00
27623;BME280;15041;45.334;5.622;2024-02-28T00:58:25;98914.72;;;10.74;100.00
27623;BME280;15041;45.334;5.622;2024-02-28T01:01:15;98911.50;;;10.77;100.00
27623;BME280;15041;45.334;5.622;2024-02-28T01:04:04;98919.03;;;10.75;100.00
27623;BME280;15041;45.334;5.622;2024-02-28T01:06:52;98916.88;;;10.77;100.00
27623;BME280;15041;45.334;5.622;2024-02-28T01:09:39;98926.88;;;10.76;100.00
27623;BME280;15041;45.334;5.622;2024-02-28T01:12:26;98931.47;;;10.81;99.34
27623;BME280;15041;45.334;5.622;2024-02-28T01:15:14;98929.31;;;10.78;99.41
27623;BME280;15041;45.334;5.622;2024-02-28T01:18:01;98927.69;;;10.77;97.11
27623;BME280;15041;45.334;5.622;2024-02-28T01:20:50;98930.38;;;10.82;96.81
27623;BME280;15041;45.334;5.622;2024-02-28T01:23:39;98942.53;;;10.79;96.70
27623;BME280;15041;45.334;5.622;2024-02-28T01:26:27;98934.16;;;10.81;96.30
27623;BME280;15041;45.334;5.622;2024-02-28T01:29:14;98934.44;;;10.74;96.75
27623;BME280;15041;45.334;5.622;2024-02-28T01:32:02;98940.09;;;10.78;95.11
27623;BME280;15041;45.334;5.622;2024-02-28T01:34:49;98940.63;;;10.75;93.37
27623;BME280;15041;45.334;5.622;2024-02-28T01:37:38;98931.19;;;10.72;93.82
27623;BME280;15041;45.334;5.622;2024-02-28T01:40:25;98942.22;;;10.71;95.90
27623;BME280;15041;45.334;5.622;2024-02-28T01:43:13;98941.19;;;10.72;100.00
27623;BME280;15041;45.334;5.622;2024-02-28T01:46:03;98953.06;;;10.81;98.65
27623;BME280;15041;45.334;5.622;2024-02-28T01:48:51;98956.28;;;10.83;97.74
27623;BME280;15041;45.334;5.622;2024-02-28T01:51:39;98950.63;;;10.74;98.32
27623;BME280;15041;45.334;5.622;2024-02-28T01:54:29;98954.38;;;10.68;100.00
27623;BME280;15041;45.334;5.622;2024-02-28T01:57:17;98966.00;;;10.64;100.00
27623;BME280;15041;45.334;5.622;2024-02-28T02:00:06;98961.16;;;10.81;98.83
27623;BME280;15041;45.334;5.622;2024-02-28T02:02:55;98969.22;;;10.66;97.18
27623;BME280;15041;45.334;5.622;2024-02-28T02:05:42;98974.88;;;10.59;99.26
27623;BME280;15041;45.334;5.622;2024-02-28T02:08:30;98984.84;;;10.54;100.00
27623;BME280;15041;45.334;5.622;2024-02-28T02:11:19;98991.31;;;10.53;100.00
27623;BME280;15041;45.334;5.622;2024-02-28T02:14:07;98989.72;;;10.52;100.00
27623;BME280;15041;45.334;5.622;2024-02-28T02:16:55;98989.72;;;10.62;100.00
27623;BME280;15041;45.334;5.622;2024-02-28T02:19:42;98988.69;;;10.68;100.00
27623;BME280;15041;45.334;5.622;2024-02-28T02:22:34;98987.00;;;10.47;100.00
27623;BME280;15041;45.334;5.622;2024-02-28T02:25:21;98982.19;;;10.64;100.00
27623;BME280;15041;45.334;5.622;2024-02-28T02:28:09;99000.50;;;10.62;100.00
27623;BME280;15041;45.334;5.622;2024-02-28T02:30:56;98992.97;;;10.59;100.00
27623;BME280;15041;45.334;5.622;2024-02-28T02:33:43;98987.28;;;10.60;100.00
27623;BME280;15041;45.334;5.622;2024-02-28T02:36:31;98985.41;;;10.56;100.00
27623;BME280;15041;45.334;5.622;2024-02-28T02:39:19;98995.13;;;10.62;100.00
27623;BME280;15041;45.334;5.622;2024-02-28T02:42:07;99000.81;;;10.65;98.87
27623;BME280;15041;45.334;5.622;2024-02-28T02:44:54;99001.34;;;10.62;99.03
27623;BME280;15041;45.334;5.622;2024-02-28T02:47:42;99003.78;;;10.64;98.41
27623;BME280;15041;45.334;5.622;2024-02-28T02:50:30;99005.38;;;10.65;97.82
27623;BME280;15041;45.334;5.622;2024-02-28T02:53:17;99008.06;;;10.60;100.00
27623;BME280;15041;45.334;5.622;2024-02-28T02:56:07;99008.59;;;10.57;97.04
27623;BME280;15041;45.334;5.622;2024-02-28T02:58:54;99015.91;;;10.61;95.68
27623;BME280;15041;45.334;5.622;2024-02-28T03:01:41;99013.22;;;10.61;95.33
27623;BME280;15041;45.334;5.622;2024-02-28T03:04:29;99026.41;;;10.58;95.58
27623;BME280;15041;45.334;5.622;2024-02-28T03:07:16;99018.88;;;10.55;95.85
27623;BME280;15041;45.334;5.622;2024-02-28T03:10:04;99031.00;;;10.57;94.89
27623;BME280;15041;45.334;5.622;2024-02-28T03:12:53;99031.28;;;10.61;94.74
27623;BME280;15041;45.334;5.622;2024-02-28T03:15:40;99038.28;;;10.57;96.18
27623;BME280;15041;45.334;5.622;2024-02-28T03:18:28;99038.81;;;10.54;94.27
27623;BME280;15041;45.334;5.622;2024-02-28T03:21:15;99038.03;;;10.58;93.66
27623;BME280;15041;45.334;5.622;2024-02-28T03:24:03;99045.28;;;10.58;94.11
27623;BME280;15041;45.334;5.622;2024-02-28T03:26:50;99042.06;;;10.61;94.71
27623;BME280;15041;45.334;5.622;2024-02-28T03:29:39;99044.75;;;10.56;97.01
27623;BME280;15041;45.334;5.622;2024-02-28T03:32:26;99045.75;;;10.30;100.00
27623;BME280;15041;45.334;5.622;2024-02-28T03:35:14;99045.53;;;10.51;97.37
27623;BME280;15041;45.334;5.622;2024-02-28T03:38:01;99042.06;;;10.61;95.24
27623;BME280;15041;45.334;5.622;2024-02-28T03:40:49;99052.84;;;10.51;95.48
27623;BME280;15041;45.334;5.622;2024-02-28T03:43:36;99049.63;;;10.59;94.50
27623;BME280;15041;45.334;5.622;2024-02-28T03:46:25;99054.72;;;10.50;95.15
27623;BME280;15041;45.334;5.622;2024-02-28T03:49:12;99054.47;;;10.52;96.14
27623;BME280;15041;45.334;5.622;2024-02-28T03:52:00;99064.97;;;10.48;96.97
27623;BME280;15041;45.334;5.622;2024-02-28T03:54:47;99066.34;;;10.51;96.45
27623;BME280;15041;45.334;5.622;2024-02-28T03:57:34;99073.88;;;10.54;98.84
27623;BME280;15041;45.334;5.622;2024-02-28T04:00:22;99070.06;;;10.45;100.00
27623;BME280;15041;45.334;5.622;2024-02-28T04:03:13;99076.56;;;10.49;100.00
27623;BME280;15041;45.334;5.622;2024-02-28T04:06:00;99082.47;;;10.46;99.23
27623;BME280;15041;45.334;5.622;2024-02-28T04:08:48;99092.09;;;10.22;100.00
27623;BME280;15041;45.334;5.622;2024-02-28T04:11:37;99090.28;;;10.37;100.00
27623;BME280;15041;45.334;5.622;2024-02-28T04:14:25;99090.03;;;10.44;100.00
27623;BME280;15041;45.334;5.622;2024-02-28T04:17:12;99090.56;;;10.41;99.82
27623;BME280;15041;45.334;5.622;2024-02-28T04:20:01;99087.88;;;10.46;100.00
27623;BME280;15041;45.334;5.622;2024-02-28T04:22:50;99096.53;;;10.48;100.00
27623;BME280;15041;45.334;5.622;2024-02-28T04:25:37;99095.44;;;10.44;100.00
27623;BME280;15041;45.334;5.622;2024-02-28T04:28:26;99095.91;;;10.31;100.00
27623;BME280;15041;45.334;5.622;2024-02-28T04:31:13;99100.66;;;10.14;100.00
27623;BME280;15041;45.334;5.622;2024-02-28T04:34:01;99102.16;;;10.36;100.00
27623;BME280;15041;45.334;5.622;2024-02-28T04:36:50;99105.91;;;10.35;100.00
27623;BME280;15041;45.334;5.622;2024-02-28T04:39:37;99108.34;;;10.37;100.00
27623;BME280;15041;45.334;5.622;2024-02-28T04:42:24;99116.44;;;10.37;100.00
27623;BME280;15041;45.334;5.622;2024-02-28T04:45:12;99120.19;;;10.36;100.00
27623;BME280;15041;45.334;5.622;2024-02-28T04:47:59;99119.19;;;10.42;100.00
27623;BME280;15041;45.334;5.622;2024-02-28T04:50:47;99123.97;;;10.35;100.00
27623;BME280;15041;45.334;5.622;2024-02-28T04:53:35;99116.34;;;10.22;100.00
27623;BME280;15041;45.334;5.622;2024-02-28T04:56:23;99112.84;;;10.21;100.00
27623;BME280;15041;45.334;5.622;2024-02-28T04:59:11;99114.75;;;10.26;100.00
27623;BME280;15041;45.334;5.622;2024-02-28T05:01:59;99108.81;;;10.24;100.00
27623;BME280;15041;45.334;5.622;2024-02-28T05:04:46;99108.25;;;10.22;100.00
27623;BME280;15041;45.334;5.622;2024-02-28T05:07:34;99115.50;;;10.16;100.00
27623;BME280;15041;45.334;5.622;2024-02-28T05:10:23;99127.91;;;10.17;100.00
27623;BME280;15041;45.334;5.622;2024-02-28T05:13:10;99127.16;;;10.22;100.00
27623;BME280;15041;45.334;5.622;2024-02-28T05:15:57;99144.13;;;10.22;100.00
27623;BME280;15041;45.334;5.622;2024-02-28T05:18:45;99151.41;;;10.22;100.00
27623;BME280;15041;45.334;5.622;2024-02-28T05:21:39;99154.13;;;10.27;100.00
27623;BME280;15041;45.334;5.622;2024-02-28T05:24:26;99149.25;;;10.24;100.00
27623;BME280;15041;45.334;5.622;2024-02-28T05:27:15;99156.31;;;10.25;100.00
27623;BME280;15041;45.334;5.622;2024-02-28T05:30:03;99174.06;;;10.21;100.00
27623;BME280;15041;45.334;5.622;2024-02-28T05:32:51;99180.50;;;10.20;100.00
27623;BME280;15041;45.334;5.622;2024-02-28T05:35:38;99176.16;;;10.14;100.00
27623;BME280;15041;45.334;5.622;2024-02-28T05:38:26;99175.34;;;10.13;99.67
27623;BME280;15041;45.334;5.622;2024-02-28T05:41:15;99176.78;;;10.21;100.00
27623;BME280;15041;45.334;5.622;2024-02-28T05:44:04;99185.34;;;10.13;100.00
27623;BME280;15041;45.334;5.622;2024-02-28T05:46:51;99196.19;;;10.23;100.00
27623;BME280;15041;45.334;5.622;2024-02-28T05:49:39;99196.69;;;10.20;100.00
27623;BME280;15041;45.334;5.622;2024-02-28T05:52:26;99193.97;;;10.15;100.00
27623;BME280;15041;45.334;5.622;2024-02-28T05:55:14;99188.78;;;10.08;99.39
27623;BME280;15041;45.334;5.622;2024-02-28T05:58:01;99197.16;;;10.12;99.65
27623;BME280;15041;45.334;5.622;2024-02-28T06:00:50;99205.25;;;10.12;99.72
27623;BME280;15041;45.334;5.622;2024-02-28T06:03:38;99209.91;;;10.21;99.24
27623;BME280;15041;45.334;5.622;2024-02-28T06:06:25;99210.09;;;10.10;99.92
27623;BME280;15041;45.334;5.622;2024-02-28T06:09:13;99209.00;;;10.06;100.00
27623;BME280;15041;45.334;5.622;2024-02-28T06:12:00;99226.81;;;10.12;99.95
27623;BME280;15041;45.334;5.622;2024-02-28T06:14:49;99243.00;;;10.12;98.93
27623;BME280;15041;45.334;5.622;2024-02-28T06:17:38;99247.09;;;10.14;97.91
27623;BME280;15041;45.334;5.622;2024-02-28T06:20:25;99247.03;;;10.09;97.53
27623;BME280;15041;45.334;5.622;2024-02-28T06:23:12;99243.53;;;10.09;98.70
27623;BME280;15041;45.334;5.622;2024-02-28T06:26:00;99243.84;;;10.12;100.00
27623;BME280;15041;45.334;5.622;2024-02-28T06:28:48;99253.13;;;10.00;100.00
27623;BME280;15041;45.334;5.622;2024-02-28T06:31:36;99264.47;;;10.02;99.67
27623;BME280;15041;45.334;5.622;2024-02-28T06:34:25;99263.47;;;10.08;100.00
27623;BME280;15041;45.334;5.622;2024-02-28T06:37:13;99272.13;;;10.10;100.00
27623;BME280;15041;45.334;5.622;2024-02-28T06:40:00;99274.78;;;10.05;99.52
27623;BME280;15041;45.334;5.622;2024-02-28T06:42:50;99281.16;;;9.99;97.91
27623;BME280;15041;45.334;5.622;2024-02-28T06:45:37;99281.59;;;9.91;100.00
27623;BME280;15041;45.334;5.622;2024-02-28T06:48:24;99281.69;;;9.96;100.00
27623;BME280;15041;45.334;5.622;2024-02-28T06:51:13;99285.50;;;10.00;98.34
27623;BME280;15041;45.334;5.622;2024-02-28T06:54:03;99286.03;;;10.02;98.59
27623;BME280;15041;45.334;5.622;2024-02-28T06:56:50;99294.38;;;10.00;99.31
27623;BME280;15041;45.334;5.622;2024-02-28T06:59:37;99290.81;;;9.95;100.00
27623;BME280;15041;45.334;5.622;2024-02-28T07:02:25;99289.19;;;9.94;99.35
27623;BME280;15041;45.334;5.622;2024-02-28T07:05:12;99295.50;;;10.04;98.15
27623;BME280;15041;45.334;5.622;2024-02-28T07:08:01;99301.59;;;9.95;99.93
27623;BME280;15041;45.334;5.622;2024-02-28T07:10:49;99303.25;;;9.96;100.00
27623;BME280;15041;45.334;5.622;2024-02-28T07:13:39;99303.25;;;9.96;100.00
27623;BME280;15041;45.334;5.622;2024-02-28T07:16:27;99306.97;;;9.95;100.00
27623;BME280;15041;45.334;5.622;2024-02-28T07:19:14;99312.09;;;9.91;100.00
27623;BME280;15041;45.334;5.622;2024-02-28T07:22:01;99320.41;;;9.90;100.00
27623;BME280;15041;45.334;5.622;2024-02-28T07:24:51;99316.06;;;9.84;100.00
27623;BME280;15041;45.334;5.622;2024-02-28T07:27:38;99323.06;;;9.85;100.00
27623;BME280;15041;45.334;5.622;2024-02-28T07:30:26;99326.84;;;9.84;100.00
27623;BME280;15041;45.334;5.622;2024-02-28T07:33:13;99333.94;;;9.95;100.00
27623;BME280;15041;45.334;5.622;2024-02-28T07:36:00;99335.47;;;9.86;100.00
27623;BME280;15041;45.334;5.622;2024-02-28T07:38:48;99334.47;;;9.92;100.00
27623;BME280;15041;45.334;5.622;2024-02-28T07:41:37;99339.00;;;9.86;100.00
27623;BME280;15041;45.334;5.622;2024-02-28T07:44:25;99343.19;;;9.77;100.00
27623;BME280;15041;45.334;5.622;2024-02-28T07:47:16;99345.13;;;9.82;100.00
27623;BME280;15041;45.334;5.622;2024-02-28T07:50:04;99360.78;;;9.85;100.00
27623;BME280;15041;45.334;5.622;2024-02-28T07:52:53;99363.44;;;9.80;100.00
27623;BME280;15041;45.334;5.622;2024-02-28T07:55:41;99364.56;;;9.84;100.00
27623;BME280;15041;45.334;5.622;2024-02-28T07:58:29;99359.97;;;9.84;100.00
27623;BME280;15041;45.334;5.622;2024-02-28T08:01:17;99363.44;;;9.80;100.00
27623;BME280;15041;45.334;5.622;2024-02-28T08:04:04;99364.56;;;9.84;100.00
27623;BME280;15041;45.334;5.622;2024-02-28T08:06:52;99369.63;;;9.80;100.00
27623;BME280;15041;45.334;5.622;2024-02-28T08:09:39;99381.22;;;9.81;100.00
27623;BME280;15041;45.334;5.622;2024-02-28T08:12:26;99390.50;;;9.47;100.00
27623;BME280;15041;45.334;5.622;2024-02-28T08:15:15;99391.56;;;9.67;100.00
27623;BME280;15041;45.334;5.622;2024-02-28T08:18:03;99390.28;;;9.70;100.00
27623;BME280;15041;45.334;5.622;2024-02-28T08:20:51;99394.00;;;9.69;100.00
27623;BME280;15041;45.334;5.622;2024-02-28T08:23:39;99397.78;;;9.68;100.00
27623;BME280;15041;45.334;5.622;2024-02-28T08:26:26;99396.78;;;9.74;100.00
27623;BME280;15041;45.334;5.622;2024-02-28T08:29:13;99400.00;;;9.71;100.00
27623;BME280;15041;45.334;5.622;2024-02-28T08:32:03;99400.09;;;9.81;100.00
27623;BME280;15041;45.334;5.622;2024-02-28T08:34:50;99404.94;;;9.79;99.78
27623;BME280;15041;45.334;5.622;2024-02-28T08:37:40;99411.31;;;9.73;100.00
27623;BME280;15041;45.334;5.622;2024-02-28T08:40:27;99412.69;;;9.75;100.00
27623;BME280;15041;45.334;5.622;2024-02-28T08:43:15;99406.44;;;9.70;100.00
27623;BME280;15041;45.334;5.622;2024-02-28T08:46:02;99409.69;;;9.72;100.00
27623;BME280;15041;45.334;5.622;2024-02-28T08:48:51;99404.31;;;9.72;100.00
27623;BME280;15041;45.334;5.622;2024-02-28T08:51:38;99420.97;;;9.69;100.00
27623;BME280;15041;45.334;5.622;2024-02-28T08:54:26;99411.84;;;9.70;100.00
27623;BME280;15041;45.334;5.622;2024-02-28T08:57:13;99422.03;;;9.68;100.00
27623;BME280;15041;45.334;5.622;2024-02-28T09:00:01;99419.66;;;9.71;100.00
27623;BME280;15041;45.334;5.622;2024-02-28T09:02:49;99415.44;;;9.80;100.00
27623;BME280;15041;45.334;5.622;2024-02-28T09:05:38;99413.09;;;9.84;99.79
27623;BME280;15041;45.334;5.622;2024-02-28T09:08:25;99421.53;;;9.71;99.40
27623;BME280;15041;45.334;5.622;2024-02-28T09:11:12;99429.09;;;9.74;98.73
27623;BME280;15041;45.334;5.622;2024-02-28T09:14:00;99429.09;;;9.52;99.97
27623;BME280;15041;45.334;5.622;2024-02-28T09:16:47;99423.91;;;9.67;100.00
27623;BME280;15041;45.334;5.622;2024-02-28T09:19:35;99430.13;;;9.68;99.08
27623;BME280;15041;45.334;5.622;2024-02-28T09:22:23;99435.31;;;9.74;99.15
27623;BME280;15041;45.334;5.622;2024-02-28T09:25:11;99430.13;;;9.68;98.61
27623;BME280;15041;45.334;5.622;2024-02-28T09:27:58;99430.00;;;9.58;98.78
27623;BME280;15041;45.334;5.622;2024-02-28T09:30:46;99439.81;;;9.69;99.37
27623;BME280;15041;45.334;5.622;2024-02-28T09:33:36;99445.66;;;9.61;100.00
27623;BME280;15041;45.334;5.622;2024-02-28T09:36:24;99447.72;;;9.54;100.00
27623;BME280;15041;45.334;5.622;2024-02-28T09:39:13;99456.94;;;9.58;100.00
27623;BME280;15041;45.334;5.622;2024-02-28T09:42:01;99453.81;;;9.66;99.16
27623;BME280;15041;45.334;5.622;2024-02-28T09:44:48;99455.94;;;9.64;98.31
27623;BME280;15041;45.334;5.622;2024-02-28T09:47:36;99451.97;;;9.71;99.54
27623;BME280;15041;45.334;5.622;2024-02-28T09:50:25;99459.81;;;9.73;98.91
27623;BME280;15041;45.334;5.622;2024-02-28T09:53:13;99461.00;;;9.60;100.00
27623;BME280;15041;45.334;5.622;2024-02-28T09:56:02;99464.25;;;9.62;100.00
27623;BME280;15041;45.334;5.622;2024-02-28T09:58:50;99467.84;;;9.68;99.31
27623;BME280;15041;45.334;5.622;2024-02-28T10:01:42;99461.97;;;9.71;97.96
27623;BME280;15041;45.334;5.622;2024-02-28T10:04:30;99480.13;;;9.59;98.29
27623;BME280;15041;45.334;5.622;2024-02-28T10:07:18;99479.88;;;9.44;99.20
27623;BME280;15041;45.334;5.622;2024-02-28T10:10:06;99476.69;;;9.47;99.70
27623;BME280;15041;45.334;5.622;2024-02-28T10:12:56;99480.06;;;9.54;99.79
27623;BME280;15041;45.334;5.622;2024-02-28T10:15:44;99476.34;;;9.60;99.41
27623;BME280;15041;45.334;5.622;2024-02-28T10:18:32;99484.53;;;9.48;98.70
27623;BME280;15041;45.334;5.622;2024-02-28T10:21:19;99493.00;;;9.57;99.54
27623;BME280;15041;45.334;5.622;2024-02-28T10:24:06;99490.91;;;9.59;99.31
27623;BME280;15041;45.334;5.622;2024-02-28T10:26:54;99499.59;;;9.28;100.00
27623;BME280;15041;45.334;5.622;2024-02-28T10:29:44;99500.88;;;9.42;100.00
27623;BME280;15041;45.334;5.622;2024-02-28T10:32:33;99505.25;;;9.48;99.26
27623;BME280;15041;45.334;5.622;2024-02-28T10:35:21;99500.53;;;9.55;100.00
27623;BME280;15041;45.334;5.622;2024-02-28T10:38:12;99506.88;;;9.65;99.23
27623;BME280;15041;45.334;5.622;2024-02-28T10:41:00;99507.72;;;9.66;98.10
27623;BME280;15041;45.334;5.622;2024-02-28T10:43:48;99520.47;;;9.54;99.23
27623;BME280;15041;45.334;5.622;2024-02-28T10:46:38;99521.00;;;9.56;98.92
27623;BME280;15041;45.334;5.622;2024-02-28T10:49:26;99510.81;;;9.58;99.92
27623;BME280;15041;45.334;5.622;2024-02-28T10:52:14;99518.34;;;9.23;98.73
27623;BME280;15041;45.334;5.622;2024-02-28T10:55:08;99513.94;;;9.50;98.45
27623;BME280;15041;45.334;5.622;2024-02-28T10:58:01;99523.72;;;9.56;97.92
27623;BME280;15041;45.334;5.622;2024-02-28T11:00:49;99522.41;;;9.58;98.88
27623;BME280;15041;45.334;5.622;2024-02-28T11:03:38;99526.09;;;9.52;99.77
27623;BME280;15041;45.334;5.622;2024-02-28T11:06:26;99527.97;;;9.52;100.00
27623;BME280;15041;45.334;5.622;2024-02-28T11:09:19;99529.28;;;9.66;98.68
27623;BME280;15041;45.334;5.622;2024-02-28T11:12:24;99527.00;;;9.58;99.73
27623;BME280;15041;45.334;5.622;2024-02-28T11:15:16;99531.41;;;9.47;100.00
27623;BME280;15041;45.334;5.622;2024-02-28T11:18:07;99534.16;;;9.36;100.00
27623;BME280;15041;45.334;5.622;2024-02-28T11:20:57;99543.22;;;9.46;100.00
27623;BME280;15041;45.334;5.622;2024-02-28T11:23:46;99535.63;;;9.60;99.65
27623;BME280;15041;45.334;5.622;2024-02-28T11:26:34;99533.53;;;9.62;99.77
27623;BME280;15041;45.334;5.622;2024-02-28T11:29:22;99532.88;;;9.55;99.72
27623;BME280;15041;45.334;5.622;2024-02-28T11:32:10;99532.38;;;9.58;99.82
27623;BME280;15041;45.334;5.622;2024-02-28T11:35:00;99522.91;;;9.55;99.68
27623;BME280;15041;45.334;5.622;2024-02-28T11:37:50;99536.13;;;9.57;98.79
27623;BME280;15041;45.334;5.622;2024-02-28T11:40:48;99534.25;;;9.57;98.53
27623;BME280;15041;45.334;5.622;2024-02-28T11:43:36;99529.09;;;9.56;99.25
27623;BME280;15041;45.334;5.622;2024-02-28T11:46:23;99535.63;;;9.60;100.00
27623;BME280;15041;45.334;5.622;2024-02-28T11:49:11;99539.81;;;9.51;99.59
27623;BME280;15041;45.334;5.622;2024-02-28T11:51:58;99541.78;;;9.55;100.00
27623;BME280;15041;45.334;5.622;2024-02-28T11:54:47;99547.41;;;9.54;99.88
27623;BME280;15041;45.334;5.622;2024-02-28T11:57:35;99546.25;;;9.50;98.95
27623;BME280;15041;45.334;5.622;2024-02-28T12:00:23;99543.97;;;9.42;100.00
27623;BME280;15041;45.334;5.622;2024-02-28T12:03:11;99543.63;;;9.55;100.00
27623;BME280;15041;45.334;5.622;2024-02-28T12:05:59;99544.28;;;9.62;99.68
27623;BME280;15041;45.334;5.622;2024-02-28T12:08:46;99544.94;;;9.52;99.89
27623;BME280;15041;45.334;5.622;2024-02-28T12:11:35;99549.50;;;9.52;99.07
27623;BME280;15041;45.334;5.622;2024-02-28T12:14:23;99550.66;;;9.56;99.15
27623;BME280;15041;45.334;5.622;2024-02-28T12:17:10;99555.41;;;9.49;100.00
27623;BME280;15041;45.334;5.622;2024-02-28T12:19:59;99554.34;;;9.50;100.00
27623;BME280;15041;45.334;5.622;2024-02-28T12:22:47;99562.75;;;9.37;100.00
27623;BME280;15041;45.334;5.622;2024-02-28T12:25:35;99560.78;;;9.49;99.75
27623;BME280;15041;45.334;5.622;2024-02-28T12:28:25;99554.25;;;9.45;100.00
27623;BME280;15041;45.334;5.622;2024-02-28T12:31:12;99560.28;;;9.52;99.48
27623;BME280;15041;45.334;5.622;2024-02-28T12:34:00;99562.91;;;9.47;100.00
27623;BME280;15041;45.334;5.622;2024-02-28T12:36:49;99564.53;;;9.48;100.00
27623;BME280;15041;45.334;5.622;2024-02-28T12:39:37;99563.06;;;9.40;100.00
27623;BME280;15041;45.334;5.622;2024-02-28T12:42:24;99566.19;;;9.49;100.00
27623;BME280;15041;45.334;5.622;2024-02-28T12:45:13;99568.97;;;9.54;100.00
27623;BME280;15041;45.334;5.622;2024-02-28T12:48:01;99563.72;;;9.64;99.57
27623;BME280;15041;45.334;5.622;2024-02-28T12:50:48;99570.34;;;9.56;100.00
27623;BME280;15041;45.334;5.622;2024-02-28T12:53:36;99560.38;;;9.57;98.49
27623;BME280;15041;45.334;5.622;2024-02-28T12:56:23;99571.41;;;9.55;100.00
27623;BME280;15041;45.334;5.622;2024-02-28T12:59:11;99566.34;;;9.59;99.98
27623;BME280;15041;45.334;5.622;2024-02-28T13:02:00;99564.19;;;9.61;98.04
27623;BME280;15041;45.334;5.622;2024-02-28T13:04:48;99572.56;;;9.59;99.01
27623;BME280;15041;45.334;5.622;2024-02-28T13:07:35;99570.25;;;9.68;98.54
27623;BME280;15041;45.334;5.622;2024-02-28T13:10:23;99569.75;;;9.71;97.77
27623;BME280;15041;45.334;5.622;2024-02-28T13:13:13;99568.97;;;9.54;99.28
27623;BME280;15041;45.334;5.622;2024-02-28T13:16:00;99570.09;;;9.58;99.12
27623;BME280;15041;45.334;5.622;2024-02-28T13:18:49;99562.56;;;9.60;98.70
27623;BME280;15041;45.334;5.622;2024-02-28T13:21:36;99571.72;;;9.59;99.33
27623;BME280;15041;45.334;5.622;2024-02-28T13:24:24;99573.94;;;9.62;99.16
27623;BME280;15041;45.334;5.622;2024-02-28T13:27:11;99576.63;;;9.62;99.88
27623;BME280;15041;45.334;5.622;2024-02-28T13:29:58;99575.63;;;9.68;99.17
27623;BME280;15041;45.334;5.622;2024-02-28T13:32:46;99579.41;;;9.67;98.03
27623;BME280;15041;45.334;5.622;2024-02-28T13:35:35;99575.63;;;9.68;97.56
27623;BME280;15041;45.334;5.622;2024-02-28T13:38:24;99578.75;;;9.60;97.88
27623;BME280;15041;45.334;5.622;2024-02-28T13:41:11;99577.13;;;9.59;98.67
27623;BME280;15041;45.334;5.622;2024-02-28T13:43:58;99582.19;;;9.55;98.21
27623;BME280;15041;45.334;5.622;2024-02-28T13:46:46;99583.16;;;9.66;98.91
27623;BME280;15041;45.334;5.622;2024-02-28T13:49:33;99578.81;;;9.65;98.65
27623;BME280;15041;45.334;5.622;2024-02-28T13:52:23;99577.50;;;9.67;97.99
27623;BME280;15041;45.334;5.622;2024-02-28T13:55:10;99582.16;;;9.72;98.56
27623;BME280;15041;45.334;5.622;2024-02-28T13:57:58;99591.16;;;9.77;98.84
27623;BME280;15041;45.334;5.622;2024-02-28T14:00:45;99594.44;;;9.63;99.31
27623;BME280;15041;45.334;5.622;2024-02-28T14:03:33;99598.81;;;9.69;98.26
27623;BME280;15041;45.334;5.622;2024-02-28T14:06:21;99598.66;;;9.75;98.32
27623;BME280;15041;45.334;5.622;2024-02-28T14:09:10;99606.31;;;9.17;100.00
27623;BME280;15041;45.334;5.622;2024-02-28T14:11:58;99601.66;;;9.29;100.00
27623;BME280;15041;45.334;5.622;2024-02-28T14:14:46;99609.03;;;9.06;100.00
27623;BME280;15041;45.334;5.622;2024-02-28T14:17:33;99600.63;;;9.30;100.00
27623;BME280;15041;45.334;5.622;2024-02-28T14:20:20;99609.94;;;9.56;100.00
27623;BME280;15041;45.334;5.622;2024-02-28T14:23:08;99602.91;;;9.55;100.00
27623;BME280;15041;45.334;5.622;2024-02-28T14:25:57;99603.31;;;9.47;100.00
27623;BME280;15041;45.334;5.622;2024-02-28T14:28:45;99600.88;;;9.62;100.00
27623;BME280;15041;45.334;5.622;2024-02-28T14:31:32;99611.06;;;9.43;100.00
27623;BME280;15041;45.334;5.622;2024-02-28T14:34:21;99604.19;;;9.36;100.00
27623;BME280;15041;45.334;5.622;2024-02-28T14:37:09;99588.22;;;9.46;100.00
27623;BME280;15041;45.334;5.622;2024-02-28T14:39:56;99598.50;;;9.49;100.00
27623;BME280;15041;45.334;5.622;2024-02-28T14:42:45;99603.72;;;9.39;100.00
27623;BME280;15041;45.334;5.622;2024-02-28T14:45:32;99604.31;;;9.41;100.00
27623;BME280;15041;45.334;5.622;2024-02-28T14:48:20;99598.50;;;9.49;100.00
27623;BME280;15041;45.334;5.622;2024-02-28T14:51:08;99594.97;;;9.65;100.00